Sunningdale, United Kingdom
Current Conditions -  °F | °C
As of 10:50 AM on Sunday 26 Oct 2014 (Local Time) from EGLF Reporting Station
Overcast Overcast  
Wind Chill: 13°   Ceiling: 3000
Heat Index: 13°   Visibility: 6mi
Dew Point:   Wind: 10mph
Humidity: 77%   Direction: 220°SW
Pressure: 30.18"   Gusts: NA
Location:  51.38°N, 0.62°W
Report Text: EGLF 260950Z 22009KT 9999 OVC030 13/09 Q1022
Loading
Personal Weather Stations






























Interactive Weather Map
Tropical Storm Tracking
New forecast layout! Learn more

10-Day Weather Forecast

Advertisements
Track Severe Weather on mobile